Time;durP1;ratioP1;P1;durP2;ratioP2;P2;SDS_P1;SDS_P2;PMS_P1;PMS_P2;Temp;Humidity;BMP_temperature;BMP_pressure;BME280_temperature;BME280_humidity;BME280_pressure;Samples;Min_cycle;Max_cycle;Signal;HPM_P1;HPM_P2
2022/07/22 00:00:13;;;;;;;17.52;15.73;;;20.90;99.90;;;;;;4916597;29;20395;-66
2022/07/22 00:02:39;;;;;;;16.67;15.05;;;20.80;99.90;;;;;;4933913;29;20415;-66
2022/07/22 00:05:06;;;;;;;17.58;15.98;;;20.90;99.90;;;;;;4930342;29;20469;-66
2022/07/22 00:07:32;;;;;;;17.52;15.95;;;20.90;99.90;;;;;;4915343;29;20486;-66
2022/07/22 00:09:58;;;;;;;17.80;16.00;;;20.80;99.90;;;;;;4916855;29;20498;-66
2022/07/22 00:12:23;;;;;;;17.93;16.13;;;20.80;99.90;;;;;;4916261;29;20780;-66
2022/07/22 00:14:49;;;;;;;16.93;15.23;;;20.80;99.90;;;;;;4916104;29;20400;-66
2022/07/22 00:17:14;;;;;;;16.83;15.32;;;20.80;99.90;;;;;;4915835;29;20427;-66
2022/07/22 00:19:40;;;;;;;17.30;14.50;;;20.70;99.90;;;;;;4933793;29;20892;-66
2022/07/22 00:22:06;;;;;;;15.00;13.68;;;20.70;99.90;;;;;;4932158;29;20514;-66
2022/07/22 00:24:31;;;;;;;15.00;13.50;;;20.80;99.90;;;;;;4930154;29;20490;-66
2022/07/22 00:26:57;;;;;;;15.10;13.60;;;20.80;99.90;;;;;;4914806;29;20408;-66
2022/07/22 00:29:22;;;;;;;15.30;13.73;;;20.80;99.90;;;;;;4930518;29;20542;-66
2022/07/22 00:31:48;;;;;;;22.13;19.50;;;20.70;99.90;;;;;;4916107;29;20675;-66
2022/07/22 00:34:14;;;;;;;22.73;19.33;;;20.50;99.90;;;;;;4918025;29;20396;-66
2022/07/22 00:36:39;;;;;;;23.90;20.05;;;20.50;99.90;;;;;;4935109;29;20406;-66
2022/07/22 00:39:05;;;;;;;22.63;18.43;;;20.20;99.90;;;;;;4917810;29;20407;-66
2022/07/22 00:41:30;;;;;;;24.02;19.75;;;20.00;99.90;;;;;;4918483;29;20420;-66
2022/07/22 00:44:03;;;;;;;25.10;19.50;;;20.00;99.90;;;;;;4919220;29;20494;-66
2022/07/22 00:46:31;;;;;;;23.25;17.80;;;19.80;99.90;;;;;;4920255;29;20509;-66
2022/07/22 00:48:57;;;;;;;17.88;15.50;;;19.60;99.90;;;;;;4917661;29;20458;-66
2022/07/22 00:51:24;;;;;;;16.88;13.38;;;19.60;99.90;;;;;;4916952;29;20557;-66
2022/07/22 00:53:50;;;;;;;13.80;11.38;;;19.50;99.90;;;;;;4932706;29;20780;-66
2022/07/22 00:56:17;;;;;;;11.18;9.88;;;19.50;99.90;;;;;;4917748;29;20490;-66
2022/07/22 00:58:44;;;;;;;14.13;8.83;;;19.50;99.90;;;;;;4917233;29;20758;-66
2022/07/22 01:01:09;;;;;;;9.55;7.93;;;19.50;99.90;;;;;;4933157;29;20419;-66
2022/07/22 01:03:35;;;;;;;9.48;7.28;;;19.60;99.90;;;;;;4918176;29;20427;-66
2022/07/22 01:06:01;;;;;;;8.20;6.40;;;19.50;99.90;;;;;;4917635;29;20395;-66
2022/07/22 01:08:27;;;;;;;6.83;4.70;;;19.50;99.90;;;;;;4918629;29;20470;-66
2022/07/22 01:10:52;;;;;;;5.43;4.10;;;19.30;99.90;;;;;;4918921;29;20510;-65
2022/07/22 01:13:18;;;;;;;5.33;3.53;;;19.20;99.90;;;;;;4933205;29;20399;-66
2022/07/22 01:15:44;;;;;;;2.83;2.20;;;19.10;99.90;;;;;;4916955;29;20399;-65
2022/07/22 01:18:10;;;;;;;3.30;2.03;;;19.10;99.90;;;;;;4932093;29;20486;-66
2022/07/22 01:20:35;;;;;;;1.85;1.60;;;19.00;99.90;;;;;;4933328;29;20463;-66
2022/07/22 01:23:01;;;;;;;1.70;1.60;;;18.90;99.90;;;;;;4919583;29;20681;-66
2022/07/22 01:25:27;;;;;;;2.42;1.55;;;18.90;99.90;;;;;;4921583;29;20419;-66
2022/07/22 01:27:53;;;;;;;1.60;1.20;;;18.80;99.90;;;;;;4940338;29;20395;-66
2022/07/22 01:30:19;;;;;;;1.52;1.15;;;18.80;99.90;;;;;;4921669;29;20396;-66
2022/07/22 01:32:44;;;;;;;2.50;1.50;;;18.80;99.90;;;;;;4939078;29;20755;-66
2022/07/22 01:35:10;;;;;;;3.40;1.90;;;18.60;99.90;;;;;;4939928;29;20399;-66
2022/07/22 01:37:36;;;;;;;4.97;2.20;;;18.50;99.90;;;;;;4922383;29;20399;-66
2022/07/22 01:40:02;;;;;;;4.83;2.57;;;18.50;99.90;;;;;;4923097;29;20497;-66
2022/07/22 01:42:28;;;;;;;4.05;3.00;;;18.50;99.90;;;;;;4923353;29;20423;-66
2022/07/22 01:44:53;;;;;;;5.77;3.57;;;18.50;99.90;;;;;;4940345;29;20400;-66
2022/07/22 01:47:19;;;;;;;7.80;3.70;;;18.40;99.90;;;;;;4922171;29;20431;-66
2022/07/22 01:49:45;;;;;;;8.35;4.32;;;18.40;99.90;;;;;;4922929;29;20494;-66
2022/07/22 01:52:10;;;;;;;7.50;4.70;;;18.40;99.90;;;;;;4940820;29;20427;-66
2022/07/22 01:54:36;;;;;;;7.50;5.27;;;18.40;99.90;;;;;;4923430;29;20878;-66
2022/07/22 01:57:02;;;;;;;6.95;4.80;;;18.30;99.90;;;;;;4920955;29;20812;-66
2022/07/22 01:59:28;;;;;;;8.07;5.72;;;18.40;99.90;;;;;;4938572;29;20792;-66
2022/07/22 02:01:55;;;;;;;12.63;6.03;;;18.40;99.90;;;;;;4920797;29;20797;-66
2022/07/22 02:04:21;;;;;;;13.43;7.20;;;18.30;99.90;;;;;;4935999;29;20582;-66
2022/07/22 02:06:47;;;;;;;13.23;6.87;;;18.30;99.90;;;;;;4918618;29;20503;-66
2022/07/22 02:09:13;;;;;;;13.10;7.18;;;18.30;99.90;;;;;;4917451;29;20399;-66
2022/07/22 02:11:39;;;;;;;10.10;6.63;;;18.30;99.90;;;;;;4918880;29;20815;-66
2022/07/22 02:14:07;;;;;;;11.85;6.65;;;18.30;99.90;;;;;;4919064;29;20452;-66
2022/07/22 02:16:33;;;;;;;11.25;6.47;;;18.30;99.90;;;;;;4916896;29;20396;-66
2022/07/22 02:18:58;;;;;;;10.03;6.00;;;18.30;99.90;;;;;;4918980;29;20395;-66
2022/07/22 02:21:24;;;;;;;9.63;6.10;;;18.30;99.90;;;;;;4919573;29;20498;-66
2022/07/22 02:23:49;;;;;;;10.17;5.63;;;18.30;99.90;;;;;;4919619;29;20411;-66
2022/07/22 02:26:15;;;;;;;11.37;4.97;;;18.20;99.90;;;;;;4920850;29;20485;-66
2022/07/22 02:28:41;;;;;;;10.57;4.90;;;18.30;99.90;;;;;;4918430;29;20407;-66
2022/07/22 02:31:07;;;;;;;6.75;4.57;;;18.20;99.90;;;;;;4916670;29;20866;-66
2022/07/22 02:33:32;;;;;;;7.23;4.07;;;18.30;99.90;;;;;;4915411;29;20387;-66
2022/07/22 02:35:58;;;;;;;7.75;3.80;;;18.30;99.90;;;;;;4915374;29;20399;-66
2022/07/22 02:38:24;;;;;;;7.72;3.60;;;18.30;99.90;;;;;;4932388;29;20654;-66
2022/07/22 02:40:49;;;;;;;8.97;3.63;;;18.30;99.90;;;;;;4915976;29;20514;-66
2022/07/22 02:43:15;;;;;;;9.13;3.50;;;18.10;99.90;;;;;;4931792;29;20443;-66
2022/07/22 02:45:40;;;;;;;8.03;3.30;;;18.10;99.90;;;;;;4919194;29;20613;-66
2022/07/22 02:48:06;;;;;;;8.83;3.33;;;18.10;99.90;;;;;;4934594;29;20430;-66
2022/07/22 02:50:35;;;;;;;7.43;2.83;;;18.00;99.90;;;;;;4934162;29;20399;-66
2022/07/22 02:53:01;;;;;;;7.70;2.75;;;18.10;99.90;;;;;;4934555;29;20426;-66
2022/07/22 02:55:26;;;;;;;9.50;3.47;;;18.00;99.90;;;;;;4932993;29;20438;-66
2022/07/22 02:57:52;;;;;;;7.03;2.57;;;18.00;99.90;;;;;;4933191;29;20789;-66
2022/07/22 03:00:17;;;;;;;8.80;2.85;;;18.00;99.90;;;;;;4918138;29;20663;-66
2022/07/22 03:02:43;;;;;;;6.73;2.73;;;18.10;99.90;;;;;;4919588;29;20760;-66
2022/07/22 03:05:09;;;;;;;8.63;2.60;;;18.10;99.90;;;;;;4919750;29;20431;-66
2022/07/22 03:07:35;;;;;;;6.97;2.42;;;18.10;99.90;;;;;;4920045;29;20746;-66
2022/07/22 03:10:01;;;;;;;7.75;2.55;;;18.10;99.90;;;;;;4920328;29;20403;-66
2022/07/22 03:12:27;;;;;;;10.23;2.88;;;18.10;99.90;;;;;;4921847;29;20407;-66
2022/07/22 03:14:52;;;;;;;5.90;2.57;;;18.10;99.90;;;;;;4922523;29;20668;-66
2022/07/22 03:17:18;;;;;;;6.95;2.67;;;18.10;99.90;;;;;;4920606;29;20435;-66
2022/07/22 03:19:47;;;;;;;9.55;2.63;;;18.10;99.90;;;;;;4920822;29;20404;-66
2022/07/22 03:22:12;;;;;;;9.82;2.67;;;18.10;99.90;;;;;;4919901;29;20446;-66
2022/07/22 03:24:38;;;;;;;10.48;2.40;;;18.10;99.90;;;;;;4920415;29;20411;-66
2022/07/22 03:27:05;;;;;;;9.73;2.30;;;18.10;99.90;;;;;;4919793;29;20395;-66
2022/07/22 03:29:30;;;;;;;10.60;2.72;;;18.10;99.90;;;;;;4918869;29;20396;-66
2022/07/22 03:31:56;;;;;;;7.60;2.53;;;18.00;99.90;;;;;;4919652;29;20466;-66
2022/07/22 03:34:21;;;;;;;7.63;2.40;;;17.80;99.90;;;;;;4936236;29;20716;-66
2022/07/22 03:36:47;;;;;;;8.70;2.40;;;17.70;99.90;;;;;;4919764;29;20415;-66
2022/07/22 03:39:12;;;;;;;7.03;2.60;;;17.70;99.90;;;;;;4918452;29;20417;-66
2022/07/22 03:41:38;;;;;;;6.85;2.80;;;17.70;99.90;;;;;;4918078;29;20839;-66
2022/07/22 03:44:03;;;;;;;5.50;1.93;;;17.70;99.90;;;;;;4935010;29;20732;-66
2022/07/22 03:46:29;;;;;;;5.32;1.80;;;17.70;99.90;;;;;;4918033;29;20486;-65
2022/07/22 03:48:55;;;;;;;7.50;2.30;;;17.70;99.90;;;;;;4918407;29;20395;-66
2022/07/22 03:51:20;;;;;;;4.53;2.10;;;17.70;99.90;;;;;;4918886;29;20710;-66
2022/07/22 03:53:46;;;;;;;8.40;2.70;;;17.70;99.90;;;;;;4935515;29;20417;-66
2022/07/22 03:56:11;;;;;;;4.10;2.27;;;17.70;99.90;;;;;;4934864;29;20400;-66
2022/07/22 03:58:37;;;;;;;5.60;2.00;;;17.80;99.90;;;;;;4916686;29;20418;-65
2022/07/22 04:01:02;;;;;;;6.13;2.20;;;17.70;99.90;;;;;;4931597;29;20487;-65
2022/07/22 04:03:28;;;;;;;6.80;2.00;;;17.70;99.90;;;;;;4931184;29;20492;-65
2022/07/22 04:05:54;;;;;;;4.10;2.20;;;17.70;99.90;;;;;;4931168;29;20406;-65
2022/07/22 04:08:19;;;;;;;6.72;2.13;;;17.80;99.90;;;;;;4914731;29;20400;-65
2022/07/22 04:10:45;;;;;;;4.57;1.90;;;17.80;99.90;;;;;;4915917;29;20406;-65
2022/07/22 04:13:11;;;;;;;4.07;2.08;;;17.80;99.90;;;;;;4917172;29;20425;-65
2022/07/22 04:15:37;;;;;;;8.40;2.50;;;17.80;99.90;;;;;;4913882;29;20399;-65
2022/07/22 04:18:02;;;;;;;6.13;2.20;;;17.80;99.90;;;;;;4930442;29;20556;-65
2022/07/22 04:20:28;;;;;;;5.22;2.45;;;17.90;99.90;;;;;;4913025;29;20470;-65
2022/07/22 04:22:53;;;;;;;9.03;2.70;;;17.80;99.90;;;;;;4912221;29;20451;-65
2022/07/22 04:25:19;;;;;;;6.47;2.30;;;17.80;99.90;;;;;;4914313;29;20390;-65
2022/07/22 04:27:45;;;;;;;6.63;2.25;;;17.70;99.90;;;;;;4912518;29;20483;-65
2022/07/22 04:30:11;;;;;;;5.97;2.03;;;17.70;99.90;;;;;;4929874;29;20399;-65
2022/07/22 04:32:37;;;;;;;4.63;2.08;;;17.70;99.90;;;;;;4914449;29;20407;-65
2022/07/22 04:35:03;;;;;;;8.32;2.50;;;17.70;99.90;;;;;;4929965;29;20501;-65
2022/07/22 04:37:29;;;;;;;6.82;2.65;;;17.70;99.90;;;;;;4929023;29;20422;-65
2022/07/22 04:39:55;;;;;;;6.05;2.40;;;17.60;99.90;;;;;;4927229;29;20411;-65
2022/07/22 04:42:20;;;;;;;7.20;2.33;;;17.60;99.90;;;;;;4912383;29;20626;-65
2022/07/22 04:44:46;;;;;;;6.03;2.35;;;17.60;99.90;;;;;;4928416;29;20621;-65
2022/07/22 04:47:12;;;;;;;8.18;2.72;;;17.50;99.90;;;;;;4928161;29;20399;-65
2022/07/22 04:49:37;;;;;;;6.60;2.60;;;17.40;99.90;;;;;;4910773;29;20406;-65
2022/07/22 04:52:03;;;;;;;7.70;2.20;;;17.30;99.90;;;;;;4913662;29;20425;-65
2022/07/22 04:54:28;;;;;;;6.65;2.13;;;17.20;99.90;;;;;;4913601;29;20495;-65
2022/07/22 04:56:54;;;;;;;4.85;1.88;;;17.20;99.90;;;;;;4912973;29;20792;-65
2022/07/22 04:59:20;;;;;;;6.97;2.17;;;17.30;99.90;;;;;;4928970;29;20427;-65
2022/07/22 05:01:45;;;;;;;4.60;2.07;;;17.30;99.90;;;;;;4913086;29;20431;-65
2022/07/22 05:04:11;;;;;;;5.97;2.15;;;17.30;99.90;;;;;;4929193;29;20407;-65
2022/07/22 05:06:37;;;;;;;9.00;2.23;;;17.30;99.90;;;;;;4913507;29;20808;-65
2022/07/22 05:09:03;;;;;;;4.50;1.80;;;17.30;99.90;;;;;;4914386;29;20446;-65
2022/07/22 05:11:29;;;;;;;3.55;1.85;;;17.30;99.90;;;;;;4914856;29;20399;-65
2022/07/22 05:13:57;;;;;;;4.07;2.20;;;17.40;99.90;;;;;;4914613;29;20657;-65
2022/07/22 05:16:23;;;;;;;4.22;2.00;;;17.40;99.90;;;;;;4913125;29;20403;-65
2022/07/22 05:18:48;;;;;;;7.18;2.40;;;17.40;99.90;;;;;;4930708;29;20459;-65
2022/07/22 05:21:14;;;;;;;7.27;2.37;;;17.40;99.90;;;;;;4930135;29;20424;-65
2022/07/22 05:23:39;;;;;;;5.93;2.20;;;17.30;99.90;;;;;;4913570;29;20983;-66
2022/07/22 05:26:05;;;;;;;5.60;2.30;;;17.30;99.90;;;;;;4914517;29;20474;-65
2022/07/22 05:28:31;;;;;;;7.00;2.80;;;17.30;99.90;;;;;;4915539;29;20395;-65
2022/07/22 05:30:56;;;;;;;6.97;2.75;;;17.30;99.90;;;;;;4931793;29;20642;-66
2022/07/22 05:33:22;;;;;;;7.27;2.70;;;17.30;99.90;;;;;;4914761;29;20396;-66
2022/07/22 05:35:47;;;;;;;7.33;2.60;;;17.20;99.90;;;;;;4914505;29;20420;-66
2022/07/22 05:38:13;;;;;;;8.85;2.95;;;17.10;99.90;;;;;;4913762;29;20400;-66
2022/07/22 05:40:39;;;;;;;8.90;3.00;;;17.00;99.90;;;;;;4914004;29;20418;-66
2022/07/22 05:43:04;;;;;;;8.77;2.85;;;17.00;99.90;;;;;;4912242;29;20981;-66
2022/07/22 05:45:30;;;;;;;11.27;3.40;;;17.00;99.90;;;;;;4929494;29;20434;-66
2022/07/22 05:47:55;;;;;;;10.30;3.23;;;17.00;99.90;;;;;;4913102;29;20392;-66
2022/07/22 05:50:21;;;;;;;8.07;3.00;;;17.00;99.90;;;;;;4912250;29;20477;-66
2022/07/22 05:52:47;;;;;;;8.98;2.63;;;17.10;99.90;;;;;;4930628;29;20458;-66
2022/07/22 05:55:12;;;;;;;9.27;3.17;;;17.10;99.90;;;;;;4913984;29;20622;-66
2022/07/22 05:57:38;;;;;;;7.75;2.88;;;17.20;99.90;;;;;;4930266;29;20400;-66
2022/07/22 06:00:07;;;;;;;6.53;2.80;;;17.30;99.90;;;;;;4912473;29;20487;-66
2022/07/22 06:02:33;;;;;;;9.77;2.88;;;17.40;99.90;;;;;;4911737;29;21481;-66
2022/07/22 06:05:00;;;;;;;9.10;2.87;;;17.40;99.90;;;;;;4912425;29;20407;-66
2022/07/22 06:07:26;;;;;;;9.27;2.83;;;17.40;99.90;;;;;;4913558;29;20453;-65
2022/07/22 06:09:52;;;;;;;9.23;3.35;;;17.40;99.90;;;;;;4913718;29;20403;-66
2022/07/22 06:12:18;;;;;;;8.75;2.85;;;17.50;99.90;;;;;;4916300;29;20479;-66
2022/07/22 06:14:44;;;;;;;6.87;2.57;;;17.40;99.90;;;;;;4931858;29;20431;-66
2022/07/22 06:17:09;;;;;;;8.63;3.00;;;17.40;99.90;;;;;;4914223;29;20392;-66
2022/07/22 06:19:35;;;;;;;9.67;2.83;;;17.40;99.90;;;;;;4912435;29;20439;-66
2022/07/22 06:22:00;;;;;;;12.47;3.43;;;17.40;99.90;;;;;;4925643;29;20527;-66
2022/07/22 06:24:26;;;;;;;6.35;2.60;;;17.40;99.90;;;;;;4925511;29;20817;-66
2022/07/22 06:26:52;;;;;;;8.05;2.92;;;17.40;99.90;;;;;;4927222;29;20411;-66
2022/07/22 06:29:17;;;;;;;15.83;3.80;;;17.40;99.90;;;;;;4910388;29;20400;-66
2022/07/22 06:31:43;;;;;;;12.07;3.63;;;17.40;99.90;;;;;;4908184;29;20464;-66
2022/07/22 06:34:08;;;;;;;12.48;3.55;;;17.40;99.90;;;;;;4908928;29;20395;-66
2022/07/22 06:36:34;;;;;;;8.77;3.07;;;17.40;99.90;;;;;;4925607;29;20729;-66
2022/07/22 06:39:00;;;;;;;9.13;3.03;;;17.40;99.90;;;;;;4926243;29;20493;-66
2022/07/22 06:41:25;;;;;;;10.65;3.78;;;17.40;99.90;;;;;;4910529;29;20438;-66
2022/07/22 06:43:51;;;;;;;7.70;3.30;;;17.50;99.90;;;;;;4909943;29;20392;-66
2022/07/22 06:46:17;;;;;;;11.93;3.60;;;17.60;99.90;;;;;;4909024;29;20399;-66
2022/07/22 06:48:43;;;;;;;12.37;3.13;;;17.70;99.90;;;;;;4909538;29;20478;-66
2022/07/22 06:51:08;;;;;;;10.65;3.63;;;17.80;99.90;;;;;;4908684;29;20399;-66
2022/07/22 06:53:34;;;;;;;13.80;3.77;;;17.80;99.90;;;;;;4924369;29;20756;-65
2022/07/22 06:55:59;;;;;;;14.03;3.83;;;17.80;99.90;;;;;;4907916;29;20530;-66
2022/07/22 06:58:25;;;;;;;10.32;3.53;;;17.80;99.90;;;;;;4924618;29;20391;-66
2022/07/22 07:00:50;;;;;;;9.23;3.30;;;17.80;99.90;;;;;;4911106;29;20435;-66
2022/07/22 07:03:16;;;;;;;10.27;2.87;;;17.90;99.90;;;;;;4908359;29;20504;-66
2022/07/22 07:05:42;;;;;;;12.68;3.90;;;17.90;99.90;;;;;;4906633;29;20601;-66
2022/07/22 07:08:07;;;;;;;11.38;3.40;;;17.90;99.90;;;;;;4924825;29;20395;-66
2022/07/22 07:10:33;;;;;;;10.40;4.00;;;17.80;99.90;;;;;;4909143;29;20457;-66
2022/07/22 07:12:59;;;;;;;12.50;3.38;;;17.80;99.90;;;;;;4908542;29;20724;-66
2022/07/22 07:15:25;;;;;;;9.03;3.30;;;17.80;99.90;;;;;;4908333;29;20438;-66
2022/07/22 07:17:53;;;;;;;11.52;3.83;;;17.60;99.90;;;;;;4909003;29;20399;-66
2022/07/22 07:20:18;;;;;;;12.05;3.45;;;17.60;99.90;;;;;;4907950;29;20403;-66
2022/07/22 07:22:44;;;;;;;9.30;3.43;;;17.60;99.90;;;;;;4907461;29;20424;-66
2022/07/22 07:25:10;;;;;;;10.77;3.80;;;17.70;99.90;;;;;;4926196;29;20395;-66
2022/07/22 07:27:36;;;;;;;11.67;3.33;;;17.70;99.90;;;;;;4908614;29;20494;-66
2022/07/22 07:30:03;;;;;;;20.73;3.83;;;17.80;99.90;;;;;;4910430;29;20850;-66
2022/07/22 07:32:29;;;;;;;13.63;3.70;;;17.70;99.90;;;;;;4924689;29;20776;-66
2022/07/22 07:34:55;;;;;;;11.65;3.53;;;17.70;99.90;;;;;;4906838;29;20402;-66
2022/07/22 07:37:20;;;;;;;12.33;3.70;;;17.70;99.90;;;;;;4907635;29;20700;-66
2022/07/22 07:39:46;;;;;;;12.68;3.33;;;17.70;99.90;;;;;;4923059;29;20403;-65
2022/07/22 07:42:11;;;;;;;11.50;3.13;;;17.70;99.90;;;;;;4922299;29;20423;-65
2022/07/22 07:44:37;;;;;;;10.13;3.10;;;17.80;99.90;;;;;;4905975;29;20466;-65
2022/07/22 07:47:03;;;;;;;9.90;2.92;;;17.70;99.90;;;;;;4905079;29;20423;-65
2022/07/22 07:49:28;;;;;;;11.48;3.00;;;17.70;99.90;;;;;;4923102;29;20696;-65
2022/07/22 07:51:54;;;;;;;10.30;3.20;;;17.80;99.90;;;;;;4906631;29;20402;-65
2022/07/22 07:54:20;;;;;;;15.53;3.60;;;17.80;99.90;;;;;;4904216;29;20760;-65
2022/07/22 07:56:46;;;;;;;9.40;2.92;;;17.80;99.90;;;;;;4906279;29;20461;-65
2022/07/22 07:59:11;;;;;;;11.50;3.17;;;17.90;99.90;;;;;;4905813;29;20715;-65
2022/07/22 08:01:37;;;;;;;9.63;3.33;;;18.00;99.90;;;;;;4905743;29;20717;-65
2022/07/22 08:04:02;;;;;;;11.50;2.97;;;18.10;99.90;;;;;;4907513;29;20908;-67
2022/07/22 08:06:28;;;;;;;8.88;2.75;;;18.20;99.90;;;;;;4921143;29;20812;-67
2022/07/22 08:08:57;;;;;;;10.57;3.25;;;18.00;99.90;;;;;;4906599;29;20765;-67
2022/07/22 08:11:23;;;;;;;13.77;3.25;;;18.00;99.90;;;;;;4907142;29;20716;-67
2022/07/22 08:13:49;;;;;;;9.10;2.75;;;18.00;99.90;;;;;;4923828;29;20391;-67
2022/07/22 08:16:16;;;;;;;11.68;2.97;;;17.90;99.90;;;;;;4905975;29;20607;-67
2022/07/22 08:18:42;;;;;;;9.43;2.67;;;17.90;99.90;;;;;;4903634;29;20791;-67
2022/07/22 08:21:07;;;;;;;9.68;3.08;;;18.00;99.90;;;;;;4919382;29;20693;-67
2022/07/22 08:23:34;;;;;;;10.88;3.05;;;18.00;99.90;;;;;;4904175;29;20411;-67
2022/07/22 08:25:59;;;;;;;10.23;2.85;;;18.00;99.90;;;;;;4922348;29;20478;-67
2022/07/22 08:28:26;;;;;;;10.52;2.80;;;18.10;99.90;;;;;;4905060;29;20677;-67
2022/07/22 08:30:52;;;;;;;9.32;2.83;;;18.10;99.90;;;;;;4905803;29;20395;-67
2022/07/22 08:33:18;;;;;;;9.68;2.80;;;18.10;99.90;;;;;;4918371;29;20454;-66
2022/07/22 08:35:44;;;;;;;10.98;2.58;;;18.10;99.90;;;;;;4903481;29;20570;-67
2022/07/22 08:38:10;;;;;;;10.97;2.40;;;18.10;99.90;;;;;;4904358;29;20387;-67
2022/07/22 08:40:35;;;;;;;7.35;2.30;;;18.10;99.90;;;;;;4906520;29;20716;-67
2022/07/22 08:43:02;;;;;;;9.43;2.77;;;18.20;99.90;;;;;;4904842;29;20415;-67
2022/07/22 08:45:31;;;;;;;9.52;2.70;;;18.30;99.90;;;;;;4904618;29;20408;-67
2022/07/22 08:47:59;;;;;;;7.32;2.15;;;18.50;99.90;;;;;;4902029;29;20834;-67
2022/07/22 08:50:25;;;;;;;6.68;2.05;;;18.50;99.90;;;;;;4903223;29;20398;-67
2022/07/22 08:52:50;;;;;;;8.07;2.28;;;18.50;99.90;;;;;;4917845;29;20400;-67
2022/07/22 08:55:16;;;;;;;6.40;2.22;;;18.60;99.90;;;;;;4917967;29;20428;-67
2022/07/22 08:57:47;;;;;;;9.32;2.40;;;18.70;99.90;;;;;;4901560;29;20408;-67
2022/07/22 09:00:15;;;;;;;8.68;2.40;;;18.60;99.90;;;;;;4916299;29;20399;-67
2022/07/22 09:02:42;;;;;;;7.90;2.33;;;18.60;99.90;;;;;;4903419;29;20672;-67
2022/07/22 09:05:09;;;;;;;8.30;2.23;;;18.50;99.90;;;;;;4920940;29;20679;-67
2022/07/22 09:07:38;;;;;;;9.85;2.50;;;18.60;99.90;;;;;;4905039;29;20395;-67
2022/07/22 09:10:08;;;;;;;7.07;2.60;;;18.60;99.90;;;;;;4920555;29;20656;-67
2022/07/22 09:12:34;;;;;;;8.23;2.58;;;18.60;99.90;;;;;;4903311;29;20391;-67
2022/07/22 09:15:02;;;;;;;9.88;2.63;;;18.60;99.90;;;;;;4918696;29;20392;-67
2022/07/22 09:17:37;;;;;;;7.50;2.70;;;18.70;99.90;;;;;;4904884;29;20396;-67
2022/07/22 09:20:17;;;;;;;8.80;2.92;;;18.70;99.90;;;;;;4907855;29;20403;-67
2022/07/22 09:22:46;;;;;;;7.55;2.30;;;18.90;99.90;;;;;;4906381;29;20415;-66
2022/07/22 09:25:31;;;;;;;6.57;1.85;;;19.00;99.90;;;;;;4905156;29;20478;-67
2022/07/22 09:28:09;;;;;;;8.82;2.33;;;18.90;99.90;;;;;;4902216;29;20404;-67
2022/07/22 09:30:37;;;;;;;6.95;2.20;;;19.00;99.90;;;;;;4921137;29;20977;-67
2022/07/22 09:33:04;;;;;;;8.35;2.20;;;19.00;99.90;;;;;;4903879;29;20748;-67
2022/07/22 09:35:30;;;;;;;5.28;1.92;;;19.10;99.90;;;;;;4918332;29;20451;-67
2022/07/22 09:38:06;;;;;;;8.37;2.00;;;19.20;99.90;;;;;;4900259;29;20665;-67
2022/07/22 09:40:37;;;;;;;6.30;2.05;;;19.10;99.90;;;;;;4919594;29;20403;-66
2022/07/22 09:43:17;;;;;;;5.67;2.00;;;19.00;99.90;;;;;;4902101;29;20439;-67
2022/07/22 09:45:47;;;;;;;8.00;2.30;;;18.90;99.90;;;;;;4906165;29;20396;-67
2022/07/22 09:48:14;;;;;;;7.50;2.30;;;18.80;99.90;;;;;;4907779;29;20610;-67
2022/07/22 09:50:40;;;;;;;8.90;2.13;;;18.80;99.90;;;;;;4925145;29;20541;-67
2022/07/22 09:53:06;;;;;;;9.10;2.23;;;18.80;99.90;;;;;;4909509;29;20474;-67
2022/07/22 09:55:33;;;;;;;7.33;2.13;;;18.80;99.90;;;;;;4907050;29;20404;-66
2022/07/22 09:57:59;;;;;;;6.30;1.73;;;18.80;99.90;;;;;;4909495;29;20692;-66
2022/07/22 10:00:27;;;;;;;8.27;1.88;;;18.70;99.90;;;;;;4909081;29;20442;-66
2022/07/22 10:03:00;;;;;;;10.77;2.10;;;18.70;99.90;;;;;;4927910;29;20443;-66
2022/07/22 10:05:29;;;;;;;7.28;2.50;;;18.90;99.90;;;;;;4921546;29;20391;-67
2022/07/22 10:07:55;;;;;;;8.60;2.30;;;19.00;99.90;;;;;;4921975;29;20712;-67
2022/07/22 10:10:24;;;;;;;7.57;2.38;;;19.00;99.90;;;;;;4904646;29;20482;-67
2022/07/22 10:12:52;;;;;;;9.32;2.17;;;19.00;99.90;;;;;;4907990;29;20579;-67
2022/07/22 10:15:19;;;;;;;10.50;2.30;;;19.10;99.90;;;;;;4908463;29;20682;-67
2022/07/22 10:18:16;;;;;;;5.07;1.70;;;19.10;99.90;;;;;;4906957;29;20396;-67
2022/07/22 10:20:42;;;;;;;5.57;1.70;;;19.10;99.90;;;;;;4898606;29;20415;-67
2022/07/22 10:23:10;;;;;;;5.70;1.85;;;19.00;99.90;;;;;;4919786;29;20602;-67
2022/07/22 10:25:51;;;;;;;11.57;1.85;;;19.00;99.90;;;;;;4902800;29;20450;-66
2022/07/22 10:28:24;;;;;;;6.75;2.20;;;19.10;99.90;;;;;;4904170;29;20442;-67
2022/07/22 10:30:50;;;;;;;8.50;1.90;;;19.00;99.90;;;;;;4922069;29;20398;-67
2022/07/22 10:33:21;;;;;;;9.20;2.42;;;19.00;99.90;;;;;;4906924;29;20748;-67
2022/07/22 10:36:00;;;;;;;6.53;1.90;;;18.90;99.90;;;;;;4925069;29;20702;-67
2022/07/22 10:38:27;;;;;;;6.88;2.08;;;18.90;99.90;;;;;;4905288;29;20498;-67
2022/07/22 10:40:56;;;;;;;6.78;2.08;;;18.80;99.90;;;;;;4922604;29;20399;-66
2022/07/22 10:43:24;;;;;;;7.88;2.08;;;18.80;99.90;;;;;;4905132;29;20534;-67
2022/07/22 10:45:52;;;;;;;5.57;1.83;;;18.80;99.90;;;;;;4922725;29;21094;-67
2022/07/22 10:48:45;;;;;;;8.38;2.10;;;18.80;99.90;;;;;;4903803;29;20512;-67
2022/07/22 10:51:21;;;;;;;9.00;2.40;;;18.80;99.90;;;;;;4918378;29;20384;-67
2022/07/22 10:53:53;;;;;;;4.85;1.55;;;18.90;99.90;;;;;;4902286;29;20557;-67
2022/07/22 10:56:18;;;;;;;7.38;2.15;;;18.80;99.90;;;;;;4917125;29;20478;-67
2022/07/22 10:58:51;;;;;;;7.05;2.20;;;18.90;99.90;;;;;;4915790;29;20483;-65
2022/07/22 11:01:19;;;;;;;7.63;2.38;;;19.00;99.90;;;;;;4899000;29;20419;-65
2022/07/22 11:03:46;;;;;;;7.22;2.03;;;19.00;99.90;;;;;;4916109;29;20677;-65
2022/07/22 11:06:25;;;;;;;7.63;2.10;;;19.00;99.90;;;;;;4897593;29;20850;-66
2022/07/22 11:09:11;;;;;;;6.55;1.88;;;19.00;99.90;;;;;;4912461;29;20491;-66
2022/07/22 11:11:49;;;;;;;8.43;2.00;;;19.10;99.90;;;;;;4897104;29;20407;-66
2022/07/22 11:14:21;;;;;;;7.55;1.80;;;19.10;99.90;;;;;;4898441;29;20497;-66
2022/07/22 11:16:49;;;;;;;7.75;2.17;;;19.00;99.90;;;;;;4898483;29;20479;-66
2022/07/22 11:19:21;;;;;;;6.20;1.90;;;19.10;99.90;;;;;;4899336;29;20534;-66
2022/07/22 11:21:51;;;;;;;5.53;1.85;;;19.20;99.90;;;;;;4899988;29;20494;-67
2022/07/22 11:24:18;;;;;;;6.25;1.98;;;19.10;99.90;;;;;;4901355;29;20932;-66
2022/07/22 11:26:46;;;;;;;7.00;2.00;;;19.20;99.90;;;;;;4903055;29;20764;-66
2022/07/22 11:29:28;;;;;;;6.65;1.80;;;19.20;99.90;;;;;;4904118;29;21520;-66
2022/07/22 11:31:56;;;;;;;6.93;2.10;;;19.30;99.90;;;;;;4920165;29;20463;-66
2022/07/22 11:34:23;;;;;;;5.90;1.93;;;19.20;99.90;;;;;;4918506;29;20649;-67
2022/07/22 11:36:49;;;;;;;8.13;2.20;;;19.20;99.90;;;;;;4902858;29;20674;-66
2022/07/22 11:39:20;;;;;;;5.65;1.90;;;19.10;99.90;;;;;;4920496;29;20514;-67
2022/07/22 11:41:45;;;;;;;7.35;2.00;;;19.10;99.90;;;;;;4904352;29;20407;-67
2022/07/22 11:44:11;;;;;;;6.25;1.95;;;19.10;99.90;;;;;;4907519;29;20395;-67
2022/07/22 11:46:41;;;;;;;6.88;1.75;;;19.30;99.90;;;;;;4907254;29;20471;-67
2022/07/22 11:49:08;;;;;;;10.70;2.30;;;19.20;99.90;;;;;;4906554;29;20383;-67
2022/07/22 11:51:37;;;;;;;5.72;1.77;;;19.20;99.90;;;;;;4904897;29;20694;-67
2022/07/22 11:54:03;;;;;;;7.70;1.83;;;19.20;99.90;;;;;;4904033;29;20608;-67
2022/07/22 11:56:29;;;;;;;7.13;1.83;;;19.10;99.90;;;;;;4915495;29;20792;-67
2022/07/22 11:58:56;;;;;;;6.10;1.83;;;19.10;99.90;;;;;;4898053;29;20419;-67
2022/07/22 12:01:27;;;;;;;6.00;1.65;;;19.10;99.90;;;;;;4900570;29;20882;-67
2022/07/22 12:03:58;;;;;;;5.68;1.73;;;19.30;99.90;;;;;;4902686;29;20395;-67
2022/07/22 12:06:25;;;;;;;4.93;1.50;;;19.40;99.90;;;;;;4904231;29;20572;-67
2022/07/22 12:08:54;;;;;;;5.95;1.80;;;19.40;99.90;;;;;;4904550;29;20498;-67
2022/07/22 12:11:22;;;;;;;7.13;1.85;;;19.50;99.90;;;;;;4903106;29;20489;-67
2022/07/22 12:13:50;;;;;;;5.17;1.60;;;19.60;99.90;;;;;;4905206;29;20823;-67
2022/07/22 12:16:27;;;;;;;6.30;1.95;;;19.60;99.90;;;;;;4905826;29;20427;-67
2022/07/22 12:18:59;;;;;;;6.25;2.20;;;19.40;99.90;;;;;;4922075;29;20673;-67
2022/07/22 12:21:29;;;;;;;5.90;1.83;;;19.40;99.90;;;;;;4904766;29;20438;-67
2022/07/22 12:24:04;;;;;;;4.77;1.53;;;19.30;99.90;;;;;;4920575;29;20666;-67
2022/07/22 12:26:46;;;;;;;5.35;1.80;;;19.30;99.90;;;;;;4903125;29;20879;-67
2022/07/22 12:29:27;;;;;;;5.20;1.60;;;19.40;99.90;;;;;;4901551;29;20423;-67
2022/07/22 12:32:02;;;;;;;6.73;1.50;;;19.50;99.90;;;;;;4916463;29;20667;-67
2022/07/22 12:34:32;;;;;;;7.40;2.00;;;19.40;99.90;;;;;;4897737;29;20494;-67
2022/07/22 12:36:58;;;;;;;6.05;1.80;;;19.40;99.90;;;;;;4912264;29;20418;-67
2022/07/22 12:39:23;;;;;;;4.40;1.50;;;19.40;99.90;;;;;;4895360;29;20530;-67
2022/07/22 12:41:51;;;;;;;5.72;1.60;;;19.40;99.90;;;;;;4896251;29;20419;-67